• Join FlightAware (Why Join?)
  • Login
  • US Flag 
05:33PM EDT


 

Airport Tracker/Info


-or-


 

Live Flight TrackerFlight Track Log ✈ AFL150 ✈ 03-Feb-2014 ✈ UUEE / SVO - MUHA / HAV

Flight Track Log - Related Links

Times and Time Zones

All times are in EST time to prevent confusion due to time zone crossing. See the AFL150 flight status page for this flight to view local times or setup timezone preferences in your user account.

Time Position Orientation Groundspeed Altitude Reporting Facility
EST Latitude Longitude Course Direction KTS MPH feet Rate Location/Type
10:32AM 63.1667 -54.8167 247° West 210 242 36,000  Level Gander Center
10:33AM 63.1167 -55.0833 248° West 420 483 36,000  Level Gander Center
10:34AM 63.0500 -55.3667 243° Southwest 480 552 36,000  Level Gander Center
10:35AM 63.0167 -55.5833 251° West 470 541 36,000  Level Gander Center
10:36AM 63.2100 -54.5116 249° West  Level FlightAware Approximate
10:36AM 62.9667 -55.8500 248° West 470 541 36,000  Level Gander Center
10:37AM 63.1640 -54.7540 247° West  Level FlightAware Approximate
10:37AM 62.9167 -56.1167 248° West 480 552 36,000  Level Gander Center
10:38AM 63.1175 -54.9955 247° West  Level FlightAware Approximate
10:38AM 62.8500 -56.3833 241° Southwest 480 552 36,000  Level Gander Center
10:39AM 62.8000 -56.6500 248° West 480 552 36,000  Level Gander Center
10:40AM 62.7333 -56.9000 240° Southwest 480 552 36,000  Level Gander Center
10:41AM 62.6667 -57.1333 238° Southwest 460 529 36,000  Level Montreal Center
10:42AM 62.6000 -57.4000 242° Southwest 470 541 36,000  Level Montreal Center
10:43AM 62.5667 -57.6500 254° West 460 529 36,000  Level Montreal Center
10:44AM 62.5000 -57.9167 242° Southwest 480 552 36,000  Level Montreal Center
10:45AM 62.4500 -58.1667 247° West 480 552 36,000  Level Montreal Center
10:46AM 62.3667 -58.4333 236° Southwest 470 541 36,000  Level Montreal Center
10:47AM 62.3167 -58.6833 247° West 470 541 36,000  Level Montreal Center
10:48AM 62.2667 -58.9000 244° Southwest 470 541 36,000  Level Montreal Center
10:49AM 62.2000 -59.1500 240° Southwest 460 529 36,000  Level Montreal Center
10:50AM 62.1500 -59.4167 248° West 460 529 36,000  Level Montreal Center
10:51AM 62.0833 -59.6667 240° Southwest 460 529 36,000  Level Montreal Center
10:52AM 62.0167 -59.8833 237° Southwest 460 529 36,000  Level Montreal Center
10:53AM 61.9333 -60.0667 226° Southwest 450 518 36,000  Level Montreal Center
10:54AM 61.8333 -60.2333 218° Southwest 450 518 36,000  Level Montreal Center
10:55AM 61.7500 -60.4167 226° Southwest 450 518 36,000  Level Montreal Center
10:56AM 61.6500 -60.5833 218° Southwest 450 518 36,000  Level Montreal Center
10:57AM 61.5667 -60.7667 226° Southwest 450 518 36,000  Level Montreal Center
10:58AM 61.4667 -60.9833 226° Southwest 470 541 36,000  Level Montreal Center
10:59AM 61.3667 -61.1333 216° Southwest 460 529 36,000  Level Montreal Center
11:00AM 61.2833 -61.3167 227° Southwest 450 518 36,000  Level Montreal Center
11:01AM 61.2000 -61.5000 227° Southwest 450 518 36,000  Level Montreal Center
11:02AM 61.1000 -61.6500 216° Southwest 450 518 36,000  Level Montreal Center
11:03AM 61.0167 -61.8333 227° Southwest 440 506 36,000  Level Montreal Center
11:04AM 60.9167 -62.0167 222° Southwest 440 506 36,000  Level Montreal Center
11:05AM 60.8333 -62.1833 224° Southwest 440 506 36,000  Level Montreal Center
11:06AM 60.7333 -62.3667 222° Southwest 470 541 36,000  Level Montreal Center
11:07AM 60.6333 -62.5500 222° Southwest 430 495 36,000  Level Montreal Center
11:08AM 60.5500 -62.7167 225° Southwest 440 506 36,000  Level Montreal Center
11:09AM 60.4500 -62.8667 217° Southwest 440 506 36,000  Level Montreal Center
11:10AM 60.3667 -63.0333 225° Southwest 440 506 36,000  Level Montreal Center
11:11AM 60.2833 -63.2167 228° Southwest 440 506 36,000  Level Montreal Center
11:12AM 60.1833 -63.3500 214° Southwest 440 506 36,000  Level Montreal Center
11:13AM 60.1000 -63.5167 225° Southwest 440 506 36,000  Level Montreal Center
11:14AM 60.0000 -63.6833 220° Southwest 440 506 36,000  Level Montreal Center
11:15AM 59.9167 -63.8167 219° Southwest 440 506 36,000  Level Montreal Center
11:16AM 59.8167 -63.9833 220° Southwest 440 506 36,000  Level Montreal Center
11:17AM 59.7167 -64.1667 223° Southwest 430 495 36,000  Level Montreal Center
11:18AM 59.6333 -64.3167 222° Southwest 430 495 36,000  Level Montreal Center
11:19AM 59.5333 -64.4500 214° Southwest 430 495 36,000  Level Montreal Center
11:20AM 59.4500 -64.6167 226° Southwest 430 495 36,000  Level Montreal Center
11:21AM 59.3667 -64.7833 226° Southwest 430 495 36,000  Level Montreal Center
11:22AM 59.2500 -64.9167 210° Southwest 430 495 36,000  Level Montreal Center
11:23AM 59.1667 -65.0833 226° Southwest 430 495 36,000  Level Montreal Center
11:24AM 59.0833 -65.2333 223° Southwest 420 483 36,000  Level Montreal Center
11:25AM 58.9833 -65.3667 215° Southwest 420 483 36,000  Level Montreal Center
11:26AM 58.9000 -65.5167 223° Southwest 420 483 36,000  Level Montreal Center
11:27AM 58.8000 -65.6500 215° Southwest 420 483 36,000  Level Montreal Center
11:28AM 58.7167 -65.8000 223° Southwest 420 483 36,000  Level Montreal Center
11:29AM 58.6333 -65.9333 220° Southwest 420 483 36,000  Level Montreal Center
11:30AM 58.5333 -66.0833 218° Southwest 420 483 36,000  Level Montreal Center
11:31AM 58.4500 -66.2333 223° Southwest 420 483 36,000  Level Montreal Center
11:32AM 58.3500 -66.3500 211° Southwest 420 483 36,000  Level Montreal Center
11:33AM 58.2667 -66.5167 226° Southwest 420 483 36,000  Level Montreal Center
11:34AM 58.1667 -66.6333 212° Southwest 420 483 36,000  Level Montreal Center
11:35AM 58.0833 -66.7833 224° Southwest 420 483 36,000  Level Montreal Center
11:36AM 57.9833 -66.9000 212° Southwest 420 483 36,000  Level Montreal Center
11:37AM 57.9000 -67.0500 224° Southwest 410 472 36,000  Level Montreal Center
11:38AM 57.8000 -67.1667 212° Southwest 410 472 36,000  Level Montreal Center
11:39AM 57.7167 -67.3167 224° Southwest 410 472 36,000  Level Montreal Center
11:40AM 57.6167 -67.4333 212° Southwest 410 472 36,000  Level Montreal Center
11:41AM 57.5333 -67.5833 224° Southwest 420 483 36,000  Level Montreal Center
11:42AM 57.4500 -67.7000 217° Southwest 410 472 36,000  Level Montreal Center
11:43AM 57.3500 -67.8333 216° Southwest 410 472 36,000  Level Montreal Center
11:44AM 57.2667 -67.9500 217° Southwest 410 472 36,000  Level Montreal Center
11:45AM 57.1667 -68.1000 219° Southwest 410 472 36,000  Level Montreal Center
11:46AM 57.0833 -68.2167 217° Southwest 410 472 36,000  Level Montreal Center
11:47AM 56.9833 -68.3500 216° Southwest 410 472 36,000  Level Montreal Center
11:48AM 56.8833 -68.5000 219° Southwest 410 472 36,000  Level Montreal Center
11:49AM 56.8000 -68.6167 217° Southwest 410 472 36,000  Level Montreal Center
11:50AM 56.7000 -68.7500 216° Southwest 410 472 36,000  Level Montreal Center
11:51AM 56.6000 -68.8667 213° Southwest 410 472 36,000  Level Montreal Center
11:52AM 56.5333 -69.0000 228° Southwest 410 472 36,000  Level Montreal Center
11:53AM 56.4333 -69.1000 209° Southwest 410 472 36,000  Level Montreal Center
11:54AM 56.3333 -69.2500 220° Southwest 410 472 36,000  Level Montreal Center
11:55AM 56.2500 -69.3500 214° Southwest 410 472 36,000  Level Montreal Center
11:56AM 56.1500 -69.4833 217° Southwest 410 472 36,000  Level Montreal Center
11:57AM 56.0500 -69.6000 213° Southwest 410 472 36,000  Level Montreal Center
11:58AM 55.9833 -69.7000 220° Southwest 410 472 36,000  Level Montreal Center
11:59AM 55.8833 -69.8333 217° Southwest 410 472 36,000  Level Montreal Center
12:00PM 55.7833 -69.9667 217° Southwest 410 472 36,000  Level Montreal Center
12:01PM 55.6833 -70.0667 209° Southwest 410 472 36,000  Level Montreal Center
12:02PM 55.6000 -70.2000 222° Southwest 400 460 36,000  Level Montreal Center
12:03PM 55.5000 -70.3167 213° Southwest 400 460 36,000  Level Montreal Center
12:04PM 55.4167 -70.4500 222° Southwest 410 472 36,000  Level Montreal Center
12:05PM 55.3167 -70.5500 210° Southwest 410 472 36,000  Level Montreal Center
12:06PM 55.2333 -70.6833 222° Southwest 410 472 36,000  Level Montreal Center
12:07PM 55.1333 -70.7833 210° Southwest 410 472 36,000  Level Montreal Center
12:08PM 55.0500 -70.8833 215° Southwest 410 472 36,000  Level Montreal Center
12:09PM 54.9500 -71.0000 214° Southwest 410 472 36,000  Level Montreal Center
12:10PM 54.8667 -71.1000 215° Southwest 400 460 36,000  Level Montreal Center
12:11PM 54.7667 -71.2000 210° Southwest 400 460 36,000  Level Montreal Center
12:12PM 54.6667 -71.3333 218° Southwest 410 472 36,000  Level Montreal Center
12:13PM 54.5667 -71.4333 210° Southwest 410 472 36,000  Level Montreal Center
12:14PM 54.4833 -71.5500 219° Southwest 400 460 36,000  Level Montreal Center
12:15PM 54.3833 -71.6500 210° Southwest 400 460 36,000  Level Montreal Center
12:16PM 54.3000 -71.7500 215° Southwest 400 460 36,000  Level Montreal Center
12:17PM 54.2000 -71.8667 214° Southwest 400 460 36,000  Level Montreal Center
12:18PM 54.1000 -71.9667 210° Southwest 400 460 36,000  Level Montreal Center
12:19PM 54.0167 -72.1000 223° Southwest 400 460 36,000  Level Montreal Center
12:20PM 53.9167 -72.1833 206° Southwest 400 460 36,000  Level Montreal Center
12:21PM 53.8167 -72.3167 218° Southwest 400 460 36,000  Level Montreal Center
12:22PM 53.7167 -72.4000 206° Southwest 400 460 36,000  Level Montreal Center
12:23PM 53.6500 -72.5333 230° Southwest 400 460 36,000  Level Montreal Center
12:24PM 53.5500 -72.6167 206° Southwest 400 460 36,000  Level Montreal Center
12:25PM 53.4500 -72.7167 211° Southwest 400 460 36,000  Level Montreal Center
12:26PM 53.3667 -72.8333 220° Southwest 400 460 36,000  Level Montreal Center
12:27PM 53.2667 -72.9167 206° Southwest 400 460 36,000  Level Montreal Center
12:28PM 53.1667 -73.0167 211° Southwest 400 460 36,000  Level Montreal Center
12:29PM 53.0833 -73.1333 220° Southwest 400 460 36,000  Level Montreal Center
12:30PM 52.9833 -73.2167 207° Southwest 400 460 36,000  Level Montreal Center
12:31PM 52.8833 -73.3333 215° Southwest 400 460 36,000  Level Montreal Center
12:32PM 52.7833 -73.4333 211° Southwest 400 460 36,000  Level Montreal Center
12:33PM 52.7000 -73.5500 220° Southwest 400 460 36,000  Level Montreal Center
12:34PM 52.6167 -73.6333 211° Southwest 400 460 36,000  Level Montreal Center
12:35PM 52.5167 -73.7167 207° Southwest 400 460 36,000  Level Montreal Center
12:36PM 52.4167 -73.8333 215° Southwest 400 460 36,000  Level Montreal Center
12:37PM 52.3333 -73.9333 216° Southwest 400 460 36,000  Level Montreal Center
12:38PM 52.2333 -74.0333 211° Southwest 390 449 36,000  Level Montreal Center
12:39PM 52.1500 -74.1333 216° Southwest 390 449 36,000  Level Montreal Center
12:40PM 52.0500 -74.2167 207° Southwest 390 449 36,000  Level Montreal Center
12:41PM 51.9500 -74.3333 216° Southwest 390 449 36,000  Level Montreal Center
12:42PM 51.8500 -74.4167 207° Southwest 400 460 36,000  Level Montreal Center
12:43PM 51.7667 -74.5000 212° Southwest 390 449 36,000  Level Montreal Center
12:44PM 51.6667 -74.6000 212° Southwest 400 460 36,000  Level Montreal Center
12:45PM 51.5833 -74.6833 212° Southwest 400 460 36,000  Level Montreal Center
12:46PM 51.4833 -74.7833 212° Southwest 400 460 36,000  Level Montreal Center
12:47PM 51.3833 -74.8833 212° Southwest 390 449 36,000  Level Montreal Center
12:48PM 51.3000 -74.9667 212° Southwest 390 449 36,000  Level Montreal Center
12:49PM 51.2000 -75.0833 216° Southwest 400 460 36,000  Level Montreal Center
12:50PM 51.1000 -75.1667 208° Southwest 400 460 36,000  Level Montreal Center
12:51PM 51.0000 -75.2500 208° Southwest 400 460 36,000  Level Montreal Center
12:52PM 50.9167 -75.3500 217° Southwest 400 460 36,000  Level Montreal Center
12:53PM 50.8167 -75.4333 208° Southwest 400 460 36,000  Level Montreal Center
12:54PM 50.7167 -75.5333 212° Southwest 400 460 36,000  Level Montreal Center
12:55PM 50.6333 -75.6167 212° Southwest 400 460 36,000  Level Montreal Center
12:56PM 50.5333 -75.7000 208° Southwest 400 460 36,000  Level Montreal Center
12:57PM 50.4500 -75.8000 217° Southwest 400 460 36,000  Level Montreal Center
12:58PM 50.3500 -75.8833 208° Southwest 400 460 36,000  Level Montreal Center
12:59PM 50.2500 -75.9667 208° Southwest 400 460 36,000  Level Montreal Center
01:00PM 50.1500 -76.0667 213° Southwest 400 460 36,000  Level Montreal Center
01:01PM 50.0667 -76.1500 213° Southwest 400 460 36,000  Level Montreal Center
01:02PM 49.9500 -76.2333 205° Southwest 400 460 36,000  Level Montreal Center
01:03PM 49.8500 -76.3333 213° Southwest 400 460 36,000  Level Montreal Center
01:04PM 49.7500 -76.4333 213° Southwest 400 460 36,000  Level Montreal Center
01:05PM 49.6667 -76.5167 213° Southwest 400 460 36,000  Level Montreal Center
01:06PM 49.5833 -76.5833 207° Southwest 380 437 36,000  Level Montreal Center
01:07PM 49.4667 -76.6833 209° Southwest 410 472 36,000  Level Montreal Center
01:08PM 49.3833 -76.7667 213° Southwest 400 460 36,000  Level Montreal Center
01:09PM 49.2833 -76.8500 209° Southwest 390 449 36,000  Level Montreal Center
01:10PM 49.2000 -76.9500 218° Southwest 400 460 36,000  Level Montreal Center
01:11PM 49.1000 -77.0167 204° Southwest 400 460 36,000  Level Montreal Center
01:12PM 49.0000 -77.1000 209° Southwest 390 449 36,000  Level Montreal Center
01:13PM 48.9167 -77.2000 218° Southwest 400 460 36,000  Level Montreal Center
01:14PM 48.8000 -77.2667 201° Southwest 400 460 36,000  Level Montreal Center
01:15PM 48.7167 -77.3500 213° Southwest 400 460 36,000  Level Montreal Center
01:16PM 48.6167 -77.4333 209° Southwest 390 449 36,000  Level Montreal Center
01:17PM 48.5167 -77.5167 209° Southwest 390 449 36,000  Level Montreal Center
01:18PM 48.4333 -77.5833 208° Southwest 390 449 36,000  Level Montreal Center
01:19PM 48.3333 -77.6833 214° Southwest 390 449 36,000  Level Montreal Center
01:20PM 48.2500 -77.7500 208° Southwest 390 449 36,000  Level Montreal Center
01:21PM 48.1500 -77.8333 209° Southwest 390 449 36,000  Level Montreal Center
01:22PM 48.0500 -77.9000 204° Southwest 400 460 36,000  Level Montreal Center
01:23PM 47.9167 -77.9667 199° South 400 460 36,000  Level Montreal Center
01:24PM 47.8167 -78.0167 199° South 400 460 36,000  Level Montreal Center
01:25PM 47.7167 -78.0833 204° Southwest 400 460 36,000  Level Montreal Center
01:26PM 47.6167 -78.1333 199° South 400 460 36,000  Level Montreal Center
01:27PM 47.5167 -78.2000 204° Southwest 400 460 36,000  Level Montreal Center
01:28PM 47.4167 -78.2667 204° Southwest 400 460 36,000  Level Montreal Center
01:29PM 47.3167 -78.3167 199° South 400 460 36,000  Level Montreal Center
01:30PM 47.2000 -78.3833 201° Southwest 400 460 36,000  Level Montreal Center
01:31PM 47.0833 -78.4333 196° South 400 460 36,000  Level Montreal Center
01:32PM 46.9833 -78.5000 204° Southwest 400 460 36,000  Level Montreal Center
01:33PM 46.8833 -78.5667 205° Southwest 400 460 36,000  Level Montreal Center
01:34PM 46.7833 -78.6167 199° South 400 460 36,000  Level Montreal Center
01:35PM 46.6833 -78.6833 205° Southwest 400 460 36,000  Level Montreal Center
01:36PM 46.5833 -78.7333 199° South 400 460 36,000  Level Montreal Center
01:37PM 46.4833 -78.8000 205° Southwest 400 460 36,000  Level Montreal Center
01:38PM 46.3667 -78.8667 202° Southwest 400 460 36,000  Level Montreal Center
01:39PM 46.2500 -78.9000 191° South 400 460 36,000  Level Montreal Center
01:40PM 46.1500 -78.9667 205° Southwest 400 460 36,000  Level Montreal Center
01:41PM 46.0500 -79.0167 199° South 400 460 36,000  Level Montreal Center
01:42PM 45.9500 -79.0833 205° Southwest 400 460 36,000  Level Montreal Center
01:43PM 45.8333 -79.1500 202° Southwest 400 460 36,000  Level Montreal Center
01:44PM 45.7333 -79.1833 193° South 400 460 36,000  Level Montreal Center
01:45PM 45.6333 -79.2500 205° Southwest 400 460 36,000  Level Montreal Center
01:46PM 45.5333 -79.3000 199° South 400 460 36,000  Level Montreal Center
01:47PM 45.4167 -79.3500 197° South 400 460 36,000  Level Montreal Center
01:48PM 45.3167 -79.4167 205° Southwest 400 460 36,000  Level Montreal Center
01:49PM 45.2167 -79.4667 199° South 400 460 36,000  Level Montreal Center
01:50PM 45.1000 -79.5333 202° Southwest 410 472 36,000  Level Montreal Center
01:52PM 44.9667 -79.5667 190° South 410 472 36,000  Level Toronto Center
01:53PM 44.8667 -79.6333 205° Southwest 410 472 36,000  Level Toronto Center
01:54PM 44.7500 -79.6833 197° South 410 472 36,000  Level Toronto Center
01:55PM 44.6500 -79.7333 200° South 410 472 36,000  Level Toronto Center
01:56PM 44.5500 -79.8000 205° Southwest 410 472 36,000  Level Toronto Center
01:57PM 44.4500 -79.8833 211° Southwest 400 460 36,000  Level Toronto Center
01:58PM 44.3667 -79.9667 216° Southwest 400 460 36,000  Level Toronto Center
01:59PM 44.2667 -80.0500 211° Southwest 400 460 36,000  Level Toronto Center
02:00PM 44.1667 -80.1500 216° Southwest 400 460 36,000  Level Toronto Center
02:02PM 43.9833 -80.3000 210° Southwest 400 460 36,000  Level Toronto Center
02:03PM 43.8833 -80.4000 216° Southwest 400 460 36,000  Level Toronto Center
02:05PM 43.7000 -80.5500 211° Southwest 410 472 36,000  Level Toronto Center
02:06PM 43.6000 -80.6500 216° Southwest 400 460 36,000  Level Toronto Center
02:07PM 43.5167 -80.7167 210° Southwest 410 472 36,000  Level Toronto Center
02:08PM 43.4167 -80.8000 211° Southwest 400 460 36,000  Level Toronto Center
02:09PM 43.3000 -80.9000 212° Southwest 400 460 36,000  Level Toronto Center
02:10PM 43.2167 -80.9667 210° Southwest 400 460 36,000  Level Toronto Center
02:11PM 43.1167 -81.0500 211° Southwest 400 460 36,000  Level Toronto Center
02:12PM 43.0167 -81.1333 211° Southwest 400 460 36,000  Level Toronto Center
02:13PM 42.9167 -81.2000 206° Southwest 410 472 36,000  Level Toronto Center
02:13PM 42.8656 -81.2561 219° Southwest 410 472 36,000  Level Cleveland Center
02:14PM 42.7644 -81.3164 204° Southwest 408 470 36,000  Level Cleveland Center
02:15PM 42.6589 -81.3831 205° Southwest 413 475 36,000  Level Cleveland Center
02:16PM 42.5525 -81.4472 204° Southwest 414 476 36,000  Level Cleveland Center
02:17PM 42.4461 -81.5142 205° Southwest 417 480 36,000  Level Cleveland Center
02:18PM 42.3403 -81.5764 203° Southwest 412 474 36,000  Level Cleveland Center
02:20PM 42.2161 -81.6528 205° Southwest 415 478 36,000  Level Cleveland Center
02:21PM 42.1108 -81.7153 204° Southwest 412 474 36,000  Level Cleveland Center
02:22PM 42.0047 -81.7781 204° Southwest 413 475 36,000  Level Cleveland Center
02:23PM 41.9006 -81.8411 204° Southwest 410 472 36,000  Level Cleveland Center
02:24PM 41.7964 -81.9025 204° Southwest 406 467 36,000  Level Cleveland Center
02:25PM 41.6922 -81.9650 204° Southwest 408 470 36,000  Level Cleveland Center
02:26PM 41.5883 -82.0258 204° Southwest 407 468 36,000  Level Cleveland Center
02:27PM 41.4842 -82.0869 204° Southwest 407 468 36,000  Level Cleveland Center
02:28PM 41.3636 -82.1578 204° Southwest 407 468 36,000  Level Cleveland Center
02:29PM 41.2536 -82.1981 195° South 409 471 36,000  Level Cleveland Center
02:30PM 41.1447 -82.2389 196° South 406 467 36,000  Level Cleveland Center
02:31PM 41.0350 -82.2781 195° South 407 468 36,000  Level Cleveland Center
02:32PM 40.9253 -82.3164 195° South 405 466 36,000  Level Cleveland Center
02:33PM 40.7983 -82.3608 195° South 400 460 36,000  Level Indianapolis Center
02:34PM 40.6906 -82.3992 195° South 397 457 36,000  Level Indianapolis Center
02:35PM 40.5836 -82.4367 195° South 396 456 36,000  Level Indianapolis Center
02:36PM 40.4758 -82.4742 195° South 396 456 36,000  Level Indianapolis Center
02:37PM 40.3689 -82.5117 195° South 396 456 36,000  Level Indianapolis Center
02:38PM 40.2622 -82.5497 195° South 394 453 36,000  Level Indianapolis Center
02:39PM 40.1408 -82.5892 194° South 388 447 36,000  Level Indianapolis Center
02:40PM 40.0275 -82.5964 183° South 406 467 36,000  Level Indianapolis Center
02:41PM 39.9150 -82.6036 183° South 406 467 36,000  Level Indianapolis Center
02:42PM 39.8014 -82.6122 183° South 406 467 36,000  Level Indianapolis Center
02:43PM 39.6878 -82.6192 183° South 407 468 36,000  Level Indianapolis Center
02:44PM 39.5728 -82.6278 183° South 411 473 36,000  Level Indianapolis Center
02:45PM 39.4564 -82.6350 183° South 417 480 36,000  Level Indianapolis Center
02:46PM 39.3383 -82.6431 183° South 422 486 36,000  Level Indianapolis Center
02:47PM 39.1978 -82.6517 183° South 421 484 36,000  Level Indianapolis Center
02:48PM 39.0967 -82.6578 183° South 418 481 36,000  Level Indianapolis Center
02:49PM 38.9772 -82.6667 183° South 426 490 36,000  Level Indianapolis Center
02:50PM 38.8342 -82.6769 183° South 429 494 36,000  Level Indianapolis Center
02:51PM 38.7158 -82.6836 183° South 426 490 36,000  Level Indianapolis Center
02:53PM 38.5928 -82.6914 183° South 424 488 36,000  Level Indianapolis Center
02:54PM 38.4742 -82.6994 183° South 425 489 36,000  Level Indianapolis Center
02:55PM 38.3553 -82.7078 183° South 427 491 36,000  Level Indianapolis Center
02:56PM 38.2361 -82.7158 183° South 427 491 36,000  Level Indianapolis Center
02:57PM 38.1156 -82.7239 183° South 430 495 36,000  Level Indianapolis Center
02:58PM 37.9986 -82.7317 183° South 423 487 36,000  Level Indianapolis Center
02:59PM 37.8619 -82.7406 183° South 421 484 36,000  Level Indianapolis Center
03:00PM 37.7436 -82.7489 183° South 424 488 36,000  Level Indianapolis Center
03:01PM 37.6350 -82.7825 194° South 404 465 36,000  Level Indianapolis Center
03:02PM 37.5375 -82.8450 207° Southwest 391 450 36,000  Level Indianapolis Center
03:03PM 37.4433 -82.9081 208° Southwest 386 444 36,000  Level Indianapolis Center
03:04PM 37.3486 -82.9700 207° Southwest 385 443 36,000  Level Indianapolis Center
03:05PM 37.2364 -83.0425 207° Southwest 390 449 36,000  Level Indianapolis Center
03:06PM 37.1406 -83.1058 208° Southwest 391 450 36,000  Level Indianapolis Center
03:07PM 37.0436 -83.1689 207° Southwest 394 453 36,000  Level Indianapolis Center
03:08PM 36.9472 -83.2319 208° Southwest 395 455 36,000  Level Indianapolis Center
03:09PM 36.8492 -83.2933 207° Southwest 395 455 36,000  Level Indianapolis Center
03:10PM 36.7344 -83.3675 207° Southwest 398 458 36,000  Level Indianapolis Center
03:11PM 36.6364 -83.4292 207° Southwest 398 458 36,000  Level Indianapolis Center
03:12PM 36.5367 -83.4939 208° Southwest 401 461 36,000  Level Indianapolis Center
03:13PM 36.4428 -83.5539 207° Southwest 397 457 36,000  Level Indianapolis Center
03:14PM 36.3433 -83.6167 207° Southwest 398 458 36,000  Level Indianapolis Center
03:15PM 36.2442 -83.6778 206° Southwest 397 457 36,000  Level Indianapolis Center
03:16PM 36.1269 -83.7531 207° Southwest 395 455 36,000  Level Indianapolis Center
03:17PM 36.0225 -83.8231 208° Southwest 397 457 36,000  Level Atlanta Center
03:18PM 35.9225 -83.8822 206° Southwest 402 463 36,000  Level Atlanta Center
03:19PM 35.8119 -83.9158 194° South 408 470 36,000  Level Atlanta Center
03:20PM 35.6975 -83.9467 192° South 415 478 36,000  Level Atlanta Center
03:21PM 35.5806 -83.9725 190° South 420 483 36,000  Level Atlanta Center
03:22PM 35.4658 -84.0031 192° South 420 483 36,000  Level Atlanta Center
03:23PM 35.3511 -84.0311 191° South 425 489 36,000  Level Atlanta Center
03:24PM 35.2383 -84.0592 191° South 425 489 36,000  Level Atlanta Center
03:25PM 35.1217 -84.0844 190° South 425 489 36,000  Level Atlanta Center
03:26PM 35.0067 -84.1147 192° South 430 495 36,000  Level Atlanta Center
03:27PM 34.8919 -84.1425 191° South 430 495 36,000  Level Atlanta Center
03:28PM 34.7772 -84.1678 190° South 430 495 36,000  Level Atlanta Center
03:29PM 34.6603 -84.1953 191° South 430 495 36,000  Level Atlanta Center
03:30PM 34.5433 -84.2253 192° South 430 495 36,000  Level Atlanta Center
03:31PM 34.4472 -84.2453 190° South 430 495 36,000  Level Atlanta Center
03:32PM 34.3200 -84.2778 192° South 430 495 36,000  Level Atlanta Center
03:33PM 34.2053 -84.3025 190° South 430 495 36,000  Level Atlanta Center
03:34PM 34.0925 -84.3297 191° South 430 495 36,000  Level Atlanta Center
03:35PM 33.9733 -84.3594 192° South 430 495 36,000  Level Atlanta Center
03:36PM 33.8606 -84.3842 190° South 425 489 36,000  Level Atlanta Center
03:37PM 33.7436 -84.4086 190° South 430 495 36,000  Level Atlanta Center
03:38PM 33.6286 -84.4356 191° South 430 495 36,000  Level Atlanta Center
03:39PM 33.4931 -84.4347 180° South 471 542 36,000  Level Atlanta Center
03:40PM 33.3742 -84.4319 179° South 443 510 36,000  Level Atlanta Center
03:41PM 33.2550 -84.4289 179° South 438 504 36,000  Level Atlanta Center
03:42PM 33.1361 -84.4258 179° South 438 504 36,000  Level Atlanta Center
03:43PM 33.0131 -84.4278 181° South 438 504 36,000  Level Atlanta Center
03:44PM 32.8939 -84.4222 178° South 438 504 36,000 -60 Level Atlanta Center
03:45PM 32.7731 -84.4192 179° South 438 504 35,900 -540 Descending Atlanta Center
03:46PM 32.6497 -84.4186 180° South 438 504 35,000 -480 Descending Atlanta Center
03:47PM 32.5267 -84.4133 178° South 438 504 35,000  Level Atlanta Center
03:48PM 32.4056 -84.4128 180° South 438 504 35,000  Level Atlanta Center
03:49PM 32.2825 -84.4122 180° South 438 504 35,000  Level Atlanta Center
03:50PM 32.1594 -84.4069 178° South 438 504 35,000  Level Atlanta Center
03:51PM 32.0383 -84.4064 180° South 438 504 35,000  Level Atlanta Center
03:52PM 31.9153 -84.4033 179° South 438 504 35,000  Level Atlanta Center
03:53PM 31.8153 -84.4011 179° South 441 507 35,000  Level Jacksonville Center
03:54PM 31.6919 -84.3992 179° South 441 507 35,000  Level Jacksonville Center
03:55PM 31.5667 -84.3969 179° South 441 507 35,000  Level Jacksonville Center
03:56PM 31.4417 -84.3925 178° South 441 507 35,000  Level Jacksonville Center
03:57PM 31.3183 -84.3881 178° South 441 507 35,000  Level Jacksonville Center
03:58PM 31.1953 -84.3886 180° South 441 507 35,000  Level Jacksonville Center
03:59PM 31.0719 -84.3842 178° South 441 507 35,000  Level Jacksonville Center
04:00PM 30.9469 -84.3822 179° South 441 507 35,000  Level Jacksonville Center
04:01PM 30.8258 -84.3803 179° South 441 507 35,000  Level Jacksonville Center
04:02PM 30.7025 -84.3783 179° South 441 507 35,000  Level Jacksonville Center
04:03PM 30.5775 -84.3597 173° South 441 507 35,000  Level Jacksonville Center
04:04PM 30.4550 -84.3094 161° South 446 513 35,000  Level Jacksonville Center
04:05PM 30.3389 -84.2331 150° Southeast 464 534 35,000  Level Jacksonville Center
04:06PM 30.2228 -84.1569 150° Southeast 476 548 35,000  Level Jacksonville Center
04:07PM 30.1064 -84.0836 151° Southeast 471 542 35,000  Level Jacksonville Center
04:08PM 29.9922 -84.0078 150° Southeast 476 548 35,000  Level Jacksonville Center
04:09PM 29.8761 -83.9297 150° Southeast 476 548 35,000  Level Jacksonville Center
04:10PM 29.7617 -83.8592 152° Southeast 476 548 35,000  Level Jacksonville Center
04:11PM 29.6456 -83.7839 151° Southeast 476 548 35,000  Level Jacksonville Center
04:12PM 29.5292 -83.7064 150° Southeast 476 548 35,000  Level Jacksonville Center
04:13PM 29.4106 -83.6317 151° Southeast 481 554 35,000  Level Jacksonville Center
04:14PM 29.2939 -83.5569 151° Southeast 481 554 35,000  Level Jacksonville Center
04:15PM 29.1733 -83.4822 152° Southeast 481 554 35,000  Level Jacksonville Center
04:16PM 29.0589 -83.4081 150° Southeast 481 554 35,000  Level Jacksonville Center
04:17PM 28.9442 -83.3339 150° Southeast 481 554 35,000  Level Jacksonville Center
04:18PM 28.8256 -83.2600 151° Southeast 481 554 35,000  Level Jacksonville Center
04:19PM 28.7089 -83.1861 151° Southeast 481 554 35,000  Level Jacksonville Center
04:20PM 28.5881 -83.1100 151° Southeast 481 554 35,000  Level Jacksonville Center
04:21PM 28.4733 -83.0389 151° Southeast 481 554 35,000  Level Jacksonville Center
04:22PM 28.3461 -82.9586 151° Southeast 476 548 35,000  Level Jacksonville Center
04:23PM 28.2272 -82.8856 152° Southeast 476 548 35,000  Level Jacksonville Center
04:25PM 27.9883 -82.7367 151° Southeast 473 544 35,000  Level Miami Center
04:26PM 27.8683 -82.6600 151° Southeast 483 556 35,000  Level Miami Center
04:27PM 27.7567 -82.5839 149° Southeast 476 548 35,000  Level Miami Center
04:28PM 27.6328 -82.5028 150° Southeast 476 548 35,000  Level Miami Center
04:29PM 27.5169 -82.4244 149° Southeast 471 542 35,000  Level Miami Center
04:30PM 27.4150 -82.3589 150° Southeast 471 542 35,000  Level Miami Center
04:31PM 27.2989 -82.2808 149° Southeast 471 542 35,000  Level Miami Center
04:32PM 27.1767 -82.2003 150° Southeast 470 541 35,000  Level Miami Center
04:33PM 27.0606 -82.1253 150° Southeast 470 541 35,000  Level Miami Center
04:34PM 26.9464 -82.0500 150° Southeast 470 541 35,000  Level Miami Center
04:35PM 26.8322 -81.9731 149° Southeast 470 541 35,000  Level Miami Center
04:36PM 26.7178 -81.9006 150° Southeast 470 541 35,000  Level Miami Center
04:37PM 26.6036 -81.8258 150° Southeast 470 541 35,000  Level Miami Center
04:38PM 26.4867 -81.7631 154° Southeast 470 541 35,000  Level Miami Center
04:39PM 26.3692 -81.7164 160° South 461 531 35,000  Level Miami Center
04:40PM 26.2456 -81.6675 160° South 461 531 35,000  Level Miami Center
04:41PM 26.1197 -81.6231 162° South 466 536 35,000  Level Miami Center
04:42PM 25.9981 -81.5742 160° South 466 536 35,000  Level Miami Center
04:43PM 25.8678 -81.5367 165° South 471 542 35,000  Level Miami Center
04:44PM 25.7536 -81.5783 198° South 440 506 35,000  Level Miami Center
04:45PM 25.6517 -81.6344 206° Southwest 434 499 35,000 -360 Level Miami Center
04:46PM 25.5433 -81.6922 206° Southwest 439 505 34,300 -1,140 Descending Miami Center
04:47PM 25.4347 -81.7522 207° Southwest 439 505 32,800 -1,620 Descending Miami Center
04:48PM 25.3200 -81.8142 206° Southwest 434 499 31,100 -900 Descending Miami Center
04:49PM 25.2158 -81.8697 206° Southwest 428 493 31,000 -60 Descending Miami Center
04:50PM 25.1156 -81.9253 207° Southwest 423 487 31,000  Level Miami Center
04:51PM 25.0094 -81.9803 205° Southwest 418 481 31,000  Level Miami Center
04:52PM 24.9072 -82.0356 206° Southwest 413 475 31,000  Level Miami Center
04:53PM 24.8050 -82.0908 206° Southwest 413 475 31,000  Level Miami Center
04:54PM 24.7050 -82.1461 207° Southwest 413 475 31,000  Level Miami Center
04:55PM 24.6006 -82.2008 205° Southwest 413 475 31,000  Level Miami Center
04:56PM 24.5006 -82.2558 207° Southwest 413 475 31,000 -240 Level Miami Center
04:57PM 24.3942 -82.3106 205° Southwest 413 475 30,600 -1,920 Descending Miami Center
04:58PM 24.2858 -82.3628 204° Southwest 418 481 27,200 -2,640 Descending Miami Center
04:59PM 24.1814 -82.4175 206° Southwest 418 481 25,400 -2,520 Descending Miami Center
05:00PM 24.0789 -82.4789 209° Southwest 418 481 22,200 -3,240 Descending Miami Center
05:02PM 23.9475 -82.5092 173° South  Level FlightAware Approximate
05:09PM 23.1271 -82.4154 170° South  Level FlightAware Approximate
05:10PM 23.0104 -82.4000 180° South  Level FlightAware Approximate
05:11PM 22.9891 -82.4091 180° South  Level Estimated
05:12PM 22.9891 -82.4091 180° South  Level Estimated
05:13PM 22.9891 -82.4091 180° South  Level Estimated
05:14PM 22.9891 -82.4091 180° South  Level Estimated
05:15PM 22.9891 -82.4091 180° South  Level Estimated
05:16PM 22.9891 -82.4091 180° South  Level Estimated
05:17PM 22.9891 -82.4091 180° South  Level Estimated
05:18PM 22.9891 -82.4091 180° South  Level Estimated
05:19PM 22.9891 -82.4091 180° South  Level Estimated
05:20PM 22.9891 -82.4091 180° South  Level Estimated
05:21PM 22.9891 -82.4091 180° South  Level Estimated
05:22PM 22.9891 -82.4091 180° South  Level Estimated
05:23PM 22.9891 -82.4091 180° South  Level Estimated
05:24PM 22.9891 -82.4091 180° South  Level Estimated
05:25PM 22.9891 -82.4091 180° South  Level Estimated
05:26PM 22.9891 -82.4091 180° South  Level Estimated
05:27PM 22.9891 -82.4091 180° South  Level Estimated
05:28PM 22.9891 -82.4091 180° South  Level Estimated
05:29PM 22.9891 -82.4091 180° South  Level Estimated
05:30PM 22.9891 -82.4091 180° South  Level Estimated
05:31PM 22.9891 -82.4091 180° South  Level Estimated
05:32PM 22.9891 -82.4091 180° South  Level Estimated